sensor_id;sensor_type;location;lat;lon;timestamp;pressure;altitude;pressure_sealevel;temperature;humidity
12759;BME280;20944;47.048;15.390;2022-12-24T00:01:22;96867.75;;;4.82;100.00
12759;BME280;20944;47.048;15.390;2022-12-24T00:03:50;96871.03;;;4.93;100.00
12759;BME280;20944;47.048;15.390;2022-12-24T00:06:20;96852.28;;;4.76;100.00
12759;BME280;20944;47.048;15.390;2022-12-24T00:08:49;96712.09;;;3.86;100.00
12759;BME280;20944;47.048;15.390;2022-12-24T00:11:18;96854.16;;;4.69;100.00
12759;BME280;20944;47.048;15.390;2022-12-24T00:13:47;96766.16;;;4.06;100.00
12759;BME280;20944;47.048;15.390;2022-12-24T00:16:16;96851.72;;;4.60;100.00
12759;BME280;20944;47.048;15.390;2022-12-24T00:18:44;96876.66;;;4.67;100.00
12759;BME280;20944;47.048;15.390;2022-12-24T00:21:13;96882.00;;;4.59;100.00
12759;BME280;20944;47.048;15.390;2022-12-24T00:23:42;96888.06;;;4.57;100.00
12759;BME280;20944;47.048;15.390;2022-12-24T00:26:10;96603.97;;;2.88;100.00
12759;BME280;20944;47.048;15.390;2022-12-24T00:28:39;96885.50;;;4.55;100.00
12759;BME280;20944;47.048;15.390;2022-12-24T00:31:09;96782.69;;;3.99;100.00
12759;BME280;20944;47.048;15.390;2022-12-24T00:33:40;96880.22;;;4.62;100.00
12759;BME280;20944;47.048;15.390;2022-12-24T00:36:09;96866.28;;;4.67;100.00
12759;BME280;20944;47.048;15.390;2022-12-24T00:38:37;96858.41;;;4.73;100.00
12759;BME280;20944;47.048;15.390;2022-12-24T00:41:07;96855.84;;;4.72;100.00
12759;BME280;20944;47.048;15.390;2022-12-24T00:43:52;96831.44;;;4.31;100.00
12759;BME280;20944;47.048;15.390;2022-12-24T00:46:20;96870.09;;;4.45;100.00
12759;BME280;20944;47.048;15.390;2022-12-24T00:48:50;96826.59;;;4.08;100.00
12759;BME280;20944;47.048;15.390;2022-12-24T00:51:19;96893.56;;;4.40;100.00
12759;BME280;20944;47.048;15.390;2022-12-24T00:53:48;96912.66;;;4.35;100.00
12759;BME280;20944;47.048;15.390;2022-12-24T00:56:16;96897.31;;;4.19;100.00
12759;BME280;20944;47.048;15.390;2022-12-24T00:58:45;96918.69;;;4.33;100.00
12759;BME280;20944;47.048;15.390;2022-12-24T01:01:14;96928.22;;;4.35;100.00
12759;BME280;20944;47.048;15.390;2022-12-24T01:03:42;96930.75;;;4.38;100.00
12759;BME280;20944;47.048;15.390;2022-12-24T01:06:15;96913.56;;;4.30;100.00
12759;BME280;20944;47.048;15.390;2022-12-24T01:08:42;96929.75;;;4.45;100.00
12759;BME280;20944;47.048;15.390;2022-12-24T01:11:12;96929.75;;;4.46;100.00
12759;BME280;20944;47.048;15.390;2022-12-24T01:13:40;96928.94;;;4.43;100.00
12759;BME280;20944;47.048;15.390;2022-12-24T01:16:16;96928.13;;;4.41;100.00
12759;BME280;20944;47.048;15.390;2022-12-24T01:18:45;96875.00;;;4.09;100.00
12759;BME280;20944;47.048;15.390;2022-12-24T01:21:14;96916.09;;;4.33;100.00
12759;BME280;20944;47.048;15.390;2022-12-24T01:23:43;96910.88;;;4.37;100.00
12759;BME280;20944;47.048;15.390;2022-12-24T01:26:11;96930.59;;;4.48;100.00
12759;BME280;20944;47.048;15.390;2022-12-24T01:28:39;96939.22;;;4.49;100.00
12759;BME280;20944;47.048;15.390;2022-12-24T01:31:11;96946.94;;;4.53;100.00
12759;BME280;20944;47.048;15.390;2022-12-24T01:33:40;96927.28;;;4.37;100.00
12759;BME280;20944;47.048;15.390;2022-12-24T01:36:09;96926.31;;;4.44;100.00
12759;BME280;20944;47.048;15.390;2022-12-24T01:38:38;96898.22;;;4.17;100.00
12759;BME280;20944;47.048;15.390;2022-12-24T01:41:13;96767.53;;;3.74;100.00
12759;BME280;20944;47.048;15.390;2022-12-24T01:44:20;96927.94;;;4.53;100.00
12759;BME280;20944;47.048;15.390;2022-12-24T01:47:05;96941.84;;;4.46;100.00
12759;BME280;20944;47.048;15.390;2022-12-24T01:49:34;96933.31;;;4.39;100.00
12759;BME280;20944;47.048;15.390;2022-12-24T01:52:07;96927.22;;;4.42;100.00
12759;BME280;20944;47.048;15.390;2022-12-24T01:54:41;96938.53;;;4.38;100.00
12759;BME280;20944;47.048;15.390;2022-12-24T01:57:17;96937.63;;;4.39;100.00
12759;BME280;20944;47.048;15.390;2022-12-24T01:59:49;96968.75;;;4.40;100.00
12759;BME280;20944;47.048;15.390;2022-12-24T02:02:19;96968.78;;;4.37;100.00
12759;BME280;20944;47.048;15.390;2022-12-24T02:04:52;96967.00;;;4.39;100.00
12759;BME280;20944;47.048;15.390;2022-12-24T02:07:24;96925.09;;;4.08;100.00
12759;BME280;20944;47.048;15.390;2022-12-24T02:09:56;96972.97;;;4.47;100.00
12759;BME280;20944;47.048;15.390;2022-12-24T02:12:26;96883.91;;;3.90;100.00
12759;BME280;20944;47.048;15.390;2022-12-24T02:14:57;96951.53;;;4.35;100.00
12759;BME280;20944;47.048;15.390;2022-12-24T02:17:31;96963.56;;;4.39;100.00
12759;BME280;20944;47.048;15.390;2022-12-24T02:20:26;96963.72;;;4.29;100.00
12759;BME280;20944;47.048;15.390;2022-12-24T02:26:17;96962.91;;;4.24;100.00
12759;BME280;20944;47.048;15.390;2022-12-24T02:29:13;96962.94;;;4.23;100.00
12759;BME280;20944;47.048;15.390;2022-12-24T02:31:49;96947.53;;;4.12;100.00
12759;BME280;20944;47.048;15.390;2022-12-24T02:34:25;96955.03;;;4.30;100.00
12759;BME280;20944;47.048;15.390;2022-12-24T02:36:59;96922.00;;;3.82;100.00
12759;BME280;20944;47.048;15.390;2022-12-24T02:39:36;96976.69;;;4.28;100.00
12759;BME280;20944;47.048;15.390;2022-12-24T02:42:16;96993.03;;;4.35;100.00
12759;BME280;20944;47.048;15.390;2022-12-24T02:44:49;97000.06;;;4.25;100.00
12759;BME280;20944;47.048;15.390;2022-12-24T02:47:26;96998.44;;;4.18;100.00
12759;BME280;20944;47.048;15.390;2022-12-24T02:50:01;96859.63;;;3.31;100.00
12759;BME280;20944;47.048;15.390;2022-12-24T02:52:33;96913.69;;;3.55;100.00
12759;BME280;20944;47.048;15.390;2022-12-24T02:55:07;96993.19;;;4.22;100.00
12759;BME280;20944;47.048;15.390;2022-12-24T03:00:34;96999.44;;;4.06;100.00
12759;BME280;20944;47.048;15.390;2022-12-24T03:03:23;96958.25;;;3.85;100.00
12759;BME280;20944;47.048;15.390;2022-12-24T03:05:59;96999.47;;;4.04;100.00
12759;BME280;20944;47.048;15.390;2022-12-24T03:08:43;97001.22;;;4.02;100.00
12759;BME280;20944;47.048;15.390;2022-12-24T03:11:14;96890.50;;;3.47;100.00
12759;BME280;20944;47.048;15.390;2022-12-24T03:13:46;97003.53;;;4.24;100.00
12759;BME280;20944;47.048;15.390;2022-12-24T03:16:23;97005.16;;;4.32;100.00
12759;BME280;20944;47.048;15.390;2022-12-24T03:18:57;96992.25;;;4.28;100.00
12759;BME280;20944;47.048;15.390;2022-12-24T03:21:31;97006.13;;;4.24;100.00
12759;BME280;20944;47.048;15.390;2022-12-24T03:24:02;97023.44;;;4.23;100.00
12759;BME280;20944;47.048;15.390;2022-12-24T03:26:32;97014.88;;;4.17;100.00
12759;BME280;20944;47.048;15.390;2022-12-24T03:29:05;97017.47;;;4.14;100.00
12759;BME280;20944;47.048;15.390;2022-12-24T03:31:42;97021.88;;;4.07;100.00
12759;BME280;20944;47.048;15.390;2022-12-24T03:34:14;97029.75;;;3.99;100.00
12759;BME280;20944;47.048;15.390;2022-12-24T03:36:47;97021.94;;;4.04;100.00
12759;BME280;20944;47.048;15.390;2022-12-24T03:39:18;97022.94;;;3.92;100.00
12759;BME280;20944;47.048;15.390;2022-12-24T03:41:49;97034.16;;;3.93;100.00
12759;BME280;20944;47.048;15.390;2022-12-24T03:44:19;97041.22;;;3.78;100.00
12759;BME280;20944;47.048;15.390;2022-12-24T03:46:50;97037.84;;;3.72;100.00
12759;BME280;20944;47.048;15.390;2022-12-24T03:49:22;97041.31;;;3.69;100.00
12759;BME280;20944;47.048;15.390;2022-12-24T03:51:52;97040.44;;;3.72;100.00
12759;BME280;20944;47.048;15.390;2022-12-24T03:54:22;97048.19;;;3.70;100.00
12759;BME280;20944;47.048;15.390;2022-12-24T03:56:53;97053.38;;;3.70;100.00
12759;BME280;20944;47.048;15.390;2022-12-24T03:59:23;97051.72;;;3.63;100.00
12759;BME280;20944;47.048;15.390;2022-12-24T04:01:54;97063.81;;;3.64;100.00
12759;BME280;20944;47.048;15.390;2022-12-24T04:04:26;97046.75;;;3.46;100.00
12759;BME280;20944;47.048;15.390;2022-12-24T04:06:57;97078.50;;;3.64;100.00
12759;BME280;20944;47.048;15.390;2022-12-24T04:09:27;96738.94;;;1.53;100.00
12759;BME280;20944;47.048;15.390;2022-12-24T04:11:58;97058.13;;;3.27;100.00
12759;BME280;20944;47.048;15.390;2022-12-24T04:14:28;97079.66;;;3.34;100.00
12759;BME280;20944;47.048;15.390;2022-12-24T04:16:58;97096.78;;;3.45;100.00
12759;BME280;20944;47.048;15.390;2022-12-24T04:19:30;96923.47;;;2.35;100.00
12759;BME280;20944;47.048;15.390;2022-12-24T04:22:00;97074.59;;;3.14;100.00
12759;BME280;20944;47.048;15.390;2022-12-24T04:24:31;97095.22;;;3.28;100.00
12759;BME280;20944;47.048;15.390;2022-12-24T04:27:01;97120.28;;;3.22;100.00
12759;BME280;20944;47.048;15.390;2022-12-24T04:29:31;97091.78;;;3.25;100.00
12759;BME280;20944;47.048;15.390;2022-12-24T04:32:02;97060.06;;;2.97;100.00
12759;BME280;20944;47.048;15.390;2022-12-24T04:34:33;97103.94;;;3.17;100.00
12759;BME280;20944;47.048;15.390;2022-12-24T04:37:04;97097.88;;;3.18;100.00
12759;BME280;20944;47.048;15.390;2022-12-24T04:39:34;96954.47;;;2.35;100.00
12759;BME280;20944;47.048;15.390;2022-12-24T04:42:04;97080.72;;;3.08;100.00
12759;BME280;20944;47.048;15.390;2022-12-24T04:44:34;97087.75;;;2.89;100.00
12759;BME280;20944;47.048;15.390;2022-12-24T04:47:04;97050.84;;;2.60;100.00
12759;BME280;20944;47.048;15.390;2022-12-24T04:49:36;97100.69;;;2.82;100.00
12759;BME280;20944;47.048;15.390;2022-12-24T04:52:06;97094.66;;;2.86;100.00
12759;BME280;20944;47.048;15.390;2022-12-24T04:54:36;97085.19;;;2.80;100.00
12759;BME280;20944;47.048;15.390;2022-12-24T04:57:07;97094.69;;;2.75;100.00
12759;BME280;20944;47.048;15.390;2022-12-24T04:59:37;97096.38;;;2.82;100.00
12759;BME280;20944;47.048;15.390;2022-12-24T05:02:08;97102.44;;;2.84;100.00
12759;BME280;20944;47.048;15.390;2022-12-24T05:04:41;97103.28;;;2.82;100.00
12759;BME280;20944;47.048;15.390;2022-12-24T05:07:11;97122.28;;;2.78;100.00
12759;BME280;20944;47.048;15.390;2022-12-24T05:09:42;97138.63;;;2.86;100.00
12759;BME280;20944;47.048;15.390;2022-12-24T05:12:12;97135.16;;;2.91;100.00
12759;BME280;20944;47.048;15.390;2022-12-24T05:14:42;97138.66;;;2.75;100.00
12759;BME280;20944;47.048;15.390;2022-12-24T05:17:12;97131.84;;;2.57;100.00
12759;BME280;20944;47.048;15.390;2022-12-24T05:19:44;97139.63;;;2.51;100.00
12759;BME280;20944;47.048;15.390;2022-12-24T05:22:14;97136.22;;;2.49;100.00
12759;BME280;20944;47.048;15.390;2022-12-24T05:25:01;97120.78;;;2.28;100.00
12759;BME280;20944;47.048;15.390;2022-12-24T05:27:48;97118.16;;;2.38;100.00
12759;BME280;20944;47.048;15.390;2022-12-24T05:30:18;97151.75;;;2.48;100.00
12759;BME280;20944;47.048;15.390;2022-12-24T05:32:49;97148.28;;;2.44;100.00
12759;BME280;20944;47.048;15.390;2022-12-24T05:35:21;97143.13;;;2.46;100.00
12759;BME280;20944;47.048;15.390;2022-12-24T05:37:51;97125.94;;;2.35;100.00
12759;BME280;20944;47.048;15.390;2022-12-24T05:40:21;97148.28;;;2.50;100.00
12759;BME280;20944;47.048;15.390;2022-12-24T05:42:51;97132.81;;;2.41;100.00
12759;BME280;20944;47.048;15.390;2022-12-24T05:45:22;97094.97;;;2.17;100.00
12759;BME280;20944;47.048;15.390;2022-12-24T05:47:52;97147.47;;;2.39;100.00
12759;BME280;20944;47.048;15.390;2022-12-24T05:50:23;97145.69;;;2.44;100.00
12759;BME280;20944;47.048;15.390;2022-12-24T05:52:53;97133.63;;;2.44;100.00
12759;BME280;20944;47.048;15.390;2022-12-24T05:55:24;97140.53;;;2.47;100.00
12759;BME280;20944;47.048;15.390;2022-12-24T05:57:55;97119.88;;;2.41;100.00
12759;BME280;20944;47.048;15.390;2022-12-24T06:00:25;96999.59;;;1.64;100.00
12759;BME280;20944;47.048;15.390;2022-12-24T06:02:55;97134.47;;;2.51;100.00
12759;BME280;20944;47.048;15.390;2022-12-24T06:05:27;97156.88;;;2.51;100.00
12759;BME280;20944;47.048;15.390;2022-12-24T06:07:58;97162.91;;;2.50;100.00
12759;BME280;20944;47.048;15.390;2022-12-24T06:10:28;97176.75;;;2.41;100.00
12759;BME280;20944;47.048;15.390;2022-12-24T06:12:58;97153.50;;;2.30;100.00
12759;BME280;20944;47.048;15.390;2022-12-24T06:15:29;97156.09;;;2.32;100.00
12759;BME280;20944;47.048;15.390;2022-12-24T06:17:59;97154.38;;;2.34;100.00
12759;BME280;20944;47.048;15.390;2022-12-24T06:20:30;97172.44;;;2.43;100.00
12759;BME280;20944;47.048;15.390;2022-12-24T06:23:01;97162.16;;;2.28;100.00
12759;BME280;20944;47.048;15.390;2022-12-24T06:25:31;97179.34;;;2.32;100.00
12759;BME280;20944;47.048;15.390;2022-12-24T06:28:01;97150.97;;;2.12;100.00
12759;BME280;20944;47.048;15.390;2022-12-24T06:30:31;97191.50;;;1.92;100.00
12759;BME280;20944;47.048;15.390;2022-12-24T06:33:02;97175.94;;;2.19;100.00
12759;BME280;20944;47.048;15.390;2022-12-24T06:35:34;97108.03;;;1.71;100.00
12759;BME280;20944;47.048;15.390;2022-12-24T06:38:04;97186.28;;;2.27;100.00
12759;BME280;20944;47.048;15.390;2022-12-24T06:40:36;97180.25;;;2.23;100.00
12759;BME280;20944;47.048;15.390;2022-12-24T06:43:06;97151.88;;;2.08;100.00
12759;BME280;20944;47.048;15.390;2022-12-24T06:45:36;97186.28;;;2.16;100.00
12759;BME280;20944;47.048;15.390;2022-12-24T06:48:06;97202.63;;;2.35;100.00
12759;BME280;20944;47.048;15.390;2022-12-24T06:50:39;97217.28;;;2.28;100.00
12759;BME280;20944;47.048;15.390;2022-12-24T06:53:09;97210.38;;;2.29;100.00
12759;BME280;20944;47.048;15.390;2022-12-24T06:55:39;97204.34;;;2.30;100.00
12759;BME280;20944;47.048;15.390;2022-12-24T06:58:09;97187.13;;;2.20;100.00
12759;BME280;20944;47.048;15.390;2022-12-24T07:00:40;97205.22;;;2.26;100.00
12759;BME280;20944;47.048;15.390;2022-12-24T07:03:11;97206.97;;;2.27;100.00
12759;BME280;20944;47.048;15.390;2022-12-24T07:05:42;97185.44;;;2.14;100.00
12759;BME280;20944;47.048;15.390;2022-12-24T07:08:13;97213.81;;;2.35;100.00
12759;BME280;20944;47.048;15.390;2022-12-24T07:10:43;97200.91;;;2.34;100.00
12759;BME280;20944;47.048;15.390;2022-12-24T07:13:20;97212.06;;;2.47;100.00
12759;BME280;20944;47.048;15.390;2022-12-24T07:15:56;97198.31;;;2.32;100.00
12759;BME280;20944;47.048;15.390;2022-12-24T07:18:27;97157.84;;;2.17;100.00
12759;BME280;20944;47.048;15.390;2022-12-24T07:20:59;97188.81;;;2.42;100.00
12759;BME280;20944;47.048;15.390;2022-12-24T07:23:29;97232.66;;;2.74;100.00
12759;BME280;20944;47.048;15.390;2022-12-24T07:26:00;97243.00;;;2.80;100.00
12759;BME280;20944;47.048;15.390;2022-12-24T07:28:31;97239.53;;;2.84;100.00
12759;BME280;20944;47.048;15.390;2022-12-24T07:31:01;97242.03;;;3.00;100.00
12759;BME280;20944;47.048;15.390;2022-12-24T07:33:32;97281.75;;;2.94;100.00
12759;BME280;20944;47.048;15.390;2022-12-24T07:36:05;97274.84;;;2.93;100.00
12759;BME280;20944;47.048;15.390;2022-12-24T07:38:37;97263.66;;;2.92;100.00
12759;BME280;20944;47.048;15.390;2022-12-24T07:41:07;97261.00;;;3.02;100.00
12759;BME280;20944;47.048;15.390;2022-12-24T07:43:37;97264.47;;;3.08;100.00
12759;BME280;20944;47.048;15.390;2022-12-24T07:46:08;97275.63;;;3.16;100.00
12759;BME280;20944;47.048;15.390;2022-12-24T07:48:38;97287.69;;;3.22;100.00
12759;BME280;20944;47.048;15.390;2022-12-24T07:51:09;97282.50;;;3.23;100.00
12759;BME280;20944;47.048;15.390;2022-12-24T07:53:40;97287.66;;;3.23;100.00
12759;BME280;20944;47.048;15.390;2022-12-24T07:56:15;97287.66;;;3.25;100.00
12759;BME280;20944;47.048;15.390;2022-12-24T07:58:48;97287.66;;;3.30;100.00
12759;BME280;20944;47.048;15.390;2022-12-24T08:01:18;97262.72;;;3.10;100.00
12759;BME280;20944;47.048;15.390;2022-12-24T08:03:49;97298.03;;;3.19;100.00
12759;BME280;20944;47.048;15.390;2022-12-24T08:06:23;97280.84;;;3.09;100.00
12759;BME280;20944;47.048;15.390;2022-12-24T08:08:53;97298.88;;;3.29;100.00
12759;BME280;20944;47.048;15.390;2022-12-24T08:11:23;97304.88;;;3.37;100.00
12759;BME280;20944;47.048;15.390;2022-12-24T08:13:54;97314.34;;;3.42;100.00
12759;BME280;20944;47.048;15.390;2022-12-24T08:16:24;97221.34;;;2.98;100.00
12759;BME280;20944;47.048;15.390;2022-12-24T08:18:54;97314.25;;;3.56;100.00
12759;BME280;20944;47.048;15.390;2022-12-24T08:21:26;97318.53;;;3.63;100.00
12759;BME280;20944;47.048;15.390;2022-12-24T08:23:56;97327.13;;;3.73;100.00
12759;BME280;20944;47.048;15.390;2022-12-24T08:26:26;97205.75;;;3.16;100.00
12759;BME280;20944;47.048;15.390;2022-12-24T08:28:56;97329.69;;;3.76;100.00
12759;BME280;20944;47.048;15.390;2022-12-24T08:31:26;97333.13;;;3.81;100.00
12759;BME280;20944;47.048;15.390;2022-12-24T08:33:56;97335.66;;;3.89;100.00
12759;BME280;20944;47.048;15.390;2022-12-24T08:36:27;97339.09;;;3.97;100.00
12759;BME280;20944;47.048;15.390;2022-12-24T08:38:57;97297.69;;;3.82;100.00
12759;BME280;20944;47.048;15.390;2022-12-24T08:41:30;97355.53;;;3.91;100.00
12759;BME280;20944;47.048;15.390;2022-12-24T08:44:00;97348.59;;;3.93;100.00
12759;BME280;20944;47.048;15.390;2022-12-24T08:46:31;97340.81;;;3.96;100.00
12759;BME280;20944;47.048;15.390;2022-12-24T08:49:01;97329.56;;;3.96;100.00
12759;BME280;20944;47.048;15.390;2022-12-24T08:51:32;97345.88;;;4.12;100.00
12759;BME280;20944;47.048;15.390;2022-12-24T08:54:03;97324.41;;;3.94;100.00
12759;BME280;20944;47.048;15.390;2022-12-24T08:56:33;97346.00;;;3.96;100.00
12759;BME280;20944;47.048;15.390;2022-12-24T08:59:03;97344.28;;;3.94;100.00
12759;BME280;20944;47.048;15.390;2022-12-24T09:01:34;97341.63;;;4.01;100.00
12759;BME280;20944;47.048;15.390;2022-12-24T09:04:04;97339.00;;;4.09;100.00
12759;BME280;20944;47.048;15.390;2022-12-24T09:06:36;97307.97;;;3.95;100.00
12759;BME280;20944;47.048;15.390;2022-12-24T09:09:06;97347.59;;;4.13;100.00
12759;BME280;20944;47.048;15.390;2022-12-24T09:11:36;97371.84;;;4.05;100.00
12759;BME280;20944;47.048;15.390;2022-12-24T09:14:07;97325.41;;;3.72;100.00
12759;BME280;20944;47.048;15.390;2022-12-24T09:16:37;97336.59;;;3.75;100.00
12759;BME280;20944;47.048;15.390;2022-12-24T09:19:07;97379.56;;;4.16;100.00
12759;BME280;20944;47.048;15.390;2022-12-24T09:21:39;97346.00;;;3.96;100.00
12759;BME280;20944;47.048;15.390;2022-12-24T09:24:09;97370.94;;;4.13;100.00
12759;BME280;20944;47.048;15.390;2022-12-24T09:26:39;97381.25;;;4.23;100.00
12759;BME280;20944;47.048;15.390;2022-12-24T09:29:10;97392.44;;;4.27;100.00
12759;BME280;20944;47.048;15.390;2022-12-24T09:31:40;97395.97;;;4.21;100.00
12759;BME280;20944;47.048;15.390;2022-12-24T09:34:11;97402.81;;;4.30;100.00
12759;BME280;20944;47.048;15.390;2022-12-24T09:36:43;97330.53;;;3.81;100.00
12759;BME280;20944;47.048;15.390;2022-12-24T09:39:13;97403.56;;;4.47;100.00
12759;BME280;20944;47.048;15.390;2022-12-24T09:41:49;97423.41;;;4.50;100.00
12759;BME280;20944;47.048;15.390;2022-12-24T09:44:36;97414.75;;;4.54;100.00
12759;BME280;20944;47.048;15.390;2022-12-24T09:47:21;97415.63;;;4.53;100.00
12759;BME280;20944;47.048;15.390;2022-12-24T09:49:52;97385.44;;;4.41;100.00
12759;BME280;20944;47.048;15.390;2022-12-24T09:52:31;97410.25;;;4.71;100.00
12759;BME280;20944;47.048;15.390;2022-12-24T09:55:12;97417.03;;;4.92;100.00
12759;BME280;20944;47.048;15.390;2022-12-24T09:57:47;97289.53;;;4.33;100.00
12759;BME280;20944;47.048;15.390;2022-12-24T10:00:21;97313.50;;;4.60;100.00
12759;BME280;20944;47.048;15.390;2022-12-24T10:02:52;97397.66;;;5.25;100.00
12759;BME280;20944;47.048;15.390;2022-12-24T10:05:28;97394.22;;;5.23;100.00
12759;BME280;20944;47.048;15.390;2022-12-24T10:08:12;97414.81;;;5.38;100.00
12759;BME280;20944;47.048;15.390;2022-12-24T10:10:49;97411.47;;;5.29;100.00
12759;BME280;20944;47.048;15.390;2022-12-24T10:13:33;97425.13;;;5.48;100.00
12759;BME280;20944;47.048;15.390;2022-12-24T10:16:11;97418.13;;;5.53;100.00
12759;BME280;20944;47.048;15.390;2022-12-24T10:18:52;97332.03;;;5.11;100.00
12759;BME280;20944;47.048;15.390;2022-12-24T10:21:33;97398.84;;;5.72;100.00
12759;BME280;20944;47.048;15.390;2022-12-24T10:24:13;97423.63;;;6.02;100.00
12759;BME280;20944;47.048;15.390;2022-12-24T10:26:49;97424.41;;;6.09;100.00
12759;BME280;20944;47.048;15.390;2022-12-24T10:29:25;97411.25;;;6.19;100.00
12759;BME280;20944;47.048;15.390;2022-12-24T10:32:12;97405.13;;;6.22;100.00
12759;BME280;20944;47.048;15.390;2022-12-24T10:34:48;97420.56;;;6.34;100.00
12759;BME280;20944;47.048;15.390;2022-12-24T10:37:23;97429.06;;;6.48;100.00
12759;BME280;20944;47.048;15.390;2022-12-24T10:39:59;97399.50;;;6.51;100.00
12759;BME280;20944;47.048;15.390;2022-12-24T10:42:35;97406.22;;;6.64;100.00
12759;BME280;20944;47.048;15.390;2022-12-24T10:45:20;97433.47;;;6.97;100.00
12759;BME280;20944;47.048;15.390;2022-12-24T10:47:55;97439.22;;;7.18;100.00
12759;BME280;20944;47.048;15.390;2022-12-24T10:50:30;97444.94;;;7.38;100.00
12759;BME280;20944;47.048;15.390;2022-12-24T10:53:11;97443.66;;;7.61;100.00
12759;BME280;20944;47.048;15.390;2022-12-24T10:55:46;97457.09;;;7.84;100.00
12759;BME280;20944;47.048;15.390;2022-12-24T10:58:18;97467.94;;;8.07;100.00
12759;BME280;20944;47.048;15.390;2022-12-24T11:00:50;97460.38;;;8.37;100.00
12759;BME280;20944;47.048;15.390;2022-12-24T11:03:24;97460.25;;;8.43;100.00
12759;BME280;20944;47.048;15.390;2022-12-24T11:06:06;97446.44;;;8.38;100.00
12759;BME280;20944;47.048;15.390;2022-12-24T11:08:39;97450.25;;;8.62;100.00
12759;BME280;20944;47.048;15.390;2022-12-24T11:11:12;97446.50;;;8.72;100.00
12759;BME280;20944;47.048;15.390;2022-12-24T11:13:44;97436.28;;;8.63;100.00
12759;BME280;20944;47.048;15.390;2022-12-24T11:16:20;97457.25;;;8.60;100.00
12759;BME280;20944;47.048;15.390;2022-12-24T11:18:53;97453.94;;;8.52;100.00
12759;BME280;20944;47.048;15.390;2022-12-24T11:21:26;97460.13;;;8.48;100.00
12759;BME280;20944;47.048;15.390;2022-12-24T11:23:59;97462.69;;;8.51;100.00
12759;BME280;20944;47.048;15.390;2022-12-24T11:26:31;97460.16;;;8.46;100.00
12759;BME280;20944;47.048;15.390;2022-12-24T11:29:15;97478.94;;;8.63;100.00
12759;BME280;20944;47.048;15.390;2022-12-24T11:31:49;97467.69;;;8.60;100.00
12759;BME280;20944;47.048;15.390;2022-12-24T11:34:25;97476.47;;;8.57;100.00
12759;BME280;20944;47.048;15.390;2022-12-24T11:37:08;97467.13;;;8.46;100.00
12759;BME280;20944;47.048;15.390;2022-12-24T11:39:43;97466.56;;;8.31;100.00
12759;BME280;20944;47.048;15.390;2022-12-24T11:42:29;97472.16;;;8.13;100.00
12759;BME280;20944;47.048;15.390;2022-12-24T11:45:03;97453.91;;;8.13;100.00
12759;BME280;20944;47.048;15.390;2022-12-24T11:47:37;97458.97;;;8.19;100.00
12759;BME280;20944;47.048;15.390;2022-12-24T11:50:24;97461.97;;;8.44;100.00
12759;BME280;20944;47.048;15.390;2022-12-24T11:53:01;97468.91;;;8.45;100.00
12759;BME280;20944;47.048;15.390;2022-12-24T11:55:41;97462.75;;;8.85;100.00
12759;BME280;20944;47.048;15.390;2022-12-24T11:58:24;97464.66;;;9.14;100.00
12759;BME280;20944;47.048;15.390;2022-12-24T12:01:01;97451.75;;;9.42;100.00
12759;BME280;20944;47.048;15.390;2022-12-24T12:03:44;97447.63;;;9.66;100.00
12759;BME280;20944;47.048;15.390;2022-12-24T12:06:24;97450.00;;;9.75;100.00
12759;BME280;20944;47.048;15.390;2022-12-24T12:09:00;97464.28;;;9.94;100.00
12759;BME280;20944;47.048;15.390;2022-12-24T12:11:33;97440.50;;;10.02;100.00
12759;BME280;20944;47.048;15.390;2022-12-24T12:14:12;97356.50;;;9.51;100.00
12759;BME280;20944;47.048;15.390;2022-12-24T12:16:47;97439.94;;;10.22;100.00
12759;BME280;20944;47.048;15.390;2022-12-24T12:19:41;97431.06;;;10.57;100.00
12759;BME280;20944;47.048;15.390;2022-12-24T12:22:22;97315.69;;;10.04;100.00
12759;BME280;20944;47.048;15.390;2022-12-24T12:24:57;97427.63;;;11.10;100.00
12759;BME280;20944;47.048;15.390;2022-12-24T12:27:32;97452.97;;;11.60;100.00
12759;BME280;20944;47.048;15.390;2022-12-24T12:30:12;97440.81;;;11.84;100.00
12759;BME280;20944;47.048;15.390;2022-12-24T12:32:50;97453.31;;;12.25;100.00
12759;BME280;20944;47.048;15.390;2022-12-24T12:35:25;97446.41;;;12.46;100.00
12759;BME280;20944;47.048;15.390;2022-12-24T12:38:00;97312.34;;;11.78;100.00
12759;BME280;20944;47.048;15.390;2022-12-24T12:40:49;97445.56;;;12.67;100.00
12759;BME280;20944;47.048;15.390;2022-12-24T12:43:40;97447.78;;;12.78;100.00
12759;BME280;20944;47.048;15.390;2022-12-24T12:46:20;97436.81;;;12.88;100.00
12759;BME280;20944;47.048;15.390;2022-12-24T12:49:08;97447.34;;;13.10;100.00
12759;BME280;20944;47.048;15.390;2022-12-24T12:51:48;97449.97;;;13.32;100.00
12759;BME280;20944;47.048;15.390;2022-12-24T12:54:42;97446.38;;;13.55;100.00
12759;BME280;20944;47.048;15.390;2022-12-24T12:57:20;97435.38;;;14.25;100.00
12759;BME280;20944;47.048;15.390;2022-12-24T12:59:56;97450.06;;;15.58;70.78
12759;BME280;20944;47.048;15.390;2022-12-24T13:02:50;97454.28;;;16.30;66.08
12759;BME280;20944;47.048;15.390;2022-12-24T13:05:55;97452.84;;;16.89;64.34
12759;BME280;20944;47.048;15.390;2022-12-24T13:08:56;97451.22;;;17.78;62.75
12759;BME280;20944;47.048;15.390;2022-12-24T13:11:41;97418.22;;;17.54;62.23
12759;BME280;20944;47.048;15.390;2022-12-24T13:14:36;97436.09;;;17.35;62.28
12759;BME280;20944;47.048;15.390;2022-12-24T13:17:31;97456.41;;;18.24;58.85
12759;BME280;20944;47.048;15.390;2022-12-24T13:20:19;97447.78;;;18.49;58.42
12759;BME280;20944;47.048;15.390;2022-12-24T13:22:55;97447.69;;;18.51;57.54
12759;BME280;20944;47.048;15.390;2022-12-24T13:25:32;97454.66;;;18.66;57.11
12759;BME280;20944;47.048;15.390;2022-12-24T13:28:28;97465.25;;;19.09;55.30
12759;BME280;20944;47.048;15.390;2022-12-24T13:31:22;97453.34;;;18.88;54.91